1M3 weather

Ardmore Airport
Ardmore, Alabama, United States

Public forecast

Using degrees Fahrenheit for public forecast. Weather courtesy of forecast.io.

METAR (pilot weather report)

Closest report is Fayetteville Municipal Airport, 16.5 nm (30.6 km) ENE. Retrieved 2019/08/25 00:35 UTC (0 seconds ago):

KFYM 250035Z AUTO 04004KT 10SM SCT029 SCT045 26/23 A3002 RMK A01

TAF (pilot weather forecast)

Forecast is more than 12 hours old.

Closest forecast is Huntsville International Carl T Jones Field, 21.2 nm (39.2 km) SSE. Retrieved 2019/08/24 00:22 UTC (1 day ago):

TAF KHSV 242320Z 2500/2524 VRB05KT P6SM VCTS SCT035CB BKN250 TEMPO 2500/2502 4SM TSRA BR BKN025CB FM250300 11002KT P6SM SCT015 BKN025 OVC150 FM250800 13005KT 6SM BR BKN012 FM251000 10005KT 4SM BR OVC007 FM251500 12006KT 6SM BR VCSH OVC015 FM252000 12006KT P6SM -SHRA OVC025